Palonegro International Airport

Airport
ICAO code: 
SKBG
IATA Code: 
BGA
Summary
ICAO Region: 
CARSAM
Territory: 
Location: 
Palonegro, Santander Department
Serving: 
Bucaramanga
Elevation: 
3902 ft
Coordinates: 
Aerial View: 
7° 7' 34.184" N, 73° 11' 4.643" W
Metar
Observation
SKBG 292000Z 33006KT 9999 SCT017 BKN270 25/20 Q1011 RMK A2986
Station
Bucaramanga / Palonegro
Date/Time
2021-11-29 20:00:00
Wind direction
330°
Wind speed
06 kts
Lowest cloud amount
scattered clouds
Temperature
25°C
Dew point
20°C
Humidity
73%
QNH
1011 hPa
Weather condition
n/a

Palonegro International Airport is on a mountain ridge 7km west of Bucaramanga in the Santander Department of Colombia.

Climatology

Tropical monsoon climate (Köppen climate classification Am)

Runways

Designator Length Width Surface Rops
17/35 2250 40 ASP Yes/Yes
Airport map: 
Aerial View: 

SKYbrary Partners:

Safety knowledge contributed by: